Terminal Aerodrome Forecast
Issued by NWS Portland, OR

Home | Current Version | Previous Version | Text Only | Print | Product List | Glossary On
Versions: 1 2 3 4 5 6 7 8 9 10 11 12 13 14 15 16 17 18 19 20 21 22 23 24 25 26 27 28 29 30 31 32
000
FTUS46 KPQR 302321
TAFEUG
TAF
KEUG 302321Z 3100/3124 01012G18KT P6SM SKC
     FM310100 35007KT P6SM SKC
     FM310500 VRB03KT P6SM SKC
     FM311700 36011KT P6SM SKC=

USA.gov is the U.S. government's official web portal to all federal, state and local government web resources and services.